Time;durP1;ratioP1;P1;durP2;ratioP2;P2;SDS_P1;SDS_P2;PMS_P1;PMS_P2;Temp;Humidity;BMP_temperature;BMP_pressure;BME280_temperature;BME280_humidity;BME280_pressure;Samples;Min_cycle;Max_cycle;Signal;HPM_P1;HPM_P2
2021/04/17 00:01:42;;;;;;;8.43;7.73;;;;;;;6.86;68.88;96892.34;5053151;28;20454;-55
2021/04/17 00:04:09;;;;;;;9.80;8.73;;;;;;;6.71;68.70;96891.59;5052806;28;20165;-54
2021/04/17 00:06:35;;;;;;;9.20;8.30;;;;;;;6.50;69.02;96887.22;5035268;28;20439;-57
2021/04/17 00:09:05;;;;;;;8.17;7.40;;;;;;;6.58;69.23;96881.84;5051934;28;20529;-55
2021/04/17 00:11:30;;;;;;;8.33;7.60;;;;;;;6.49;70.28;96884.78;5052833;28;20417;-55
2021/04/17 00:13:56;;;;;;;8.80;7.77;;;;;;;6.57;69.79;96876.81;5052756;28;20437;-55
2021/04/17 00:16:21;;;;;;;8.20;7.50;;;;;;;6.59;68.78;96880.88;5053257;28;20170;-54
2021/04/17 00:18:47;;;;;;;7.90;7.20;;;;;;;6.48;69.07;96877.94;5052207;28;20239;-55
2021/04/17 00:21:12;;;;;;;8.07;7.30;;;;;;;6.27;69.94;96873.53;5053262;28;20199;-54
2021/04/17 00:23:39;;;;;;;7.63;6.93;;;;;;;6.01;71.00;96875.88;5052673;28;20238;-54
2021/04/17 00:26:04;;;;;;;8.10;7.30;;;;;;;5.94;71.16;96870.56;5055043;28;20168;-53
2021/04/17 00:28:29;;;;;;;7.73;7.03;;;;;;;5.94;71.75;96867.19;5056402;28;20529;-56
2021/04/17 00:30:55;;;;;;;7.83;7.13;;;;;;;5.84;71.75;96867.47;5057110;28;20628;-55
2021/04/17 00:33:21;;;;;;;8.23;7.47;;;;;;;5.80;72.79;96862.75;5057092;28;20534;-55
2021/04/17 00:35:46;;;;;;;9.07;8.17;;;;;;;5.78;73.04;96862.94;5057079;28;20168;-54
2021/04/17 00:38:12;;;;;;;8.60;7.80;;;;;;;5.66;73.08;96861.00;5056187;28;20175;-53
2021/04/17 00:40:38;;;;;;;7.93;7.23;;;;;;;5.75;72.89;96860.72;5056848;28;20178;-54
2021/04/17 00:43:03;;;;;;;8.63;7.77;;;;;;;5.86;72.53;96849.03;5056584;28;20252;-54
2021/04/17 00:45:28;;;;;;;8.37;7.57;;;;;;;5.81;72.40;96856.56;5057060;28;20170;-53
2021/04/17 00:47:54;;;;;;;8.27;7.47;;;;;;;5.75;72.48;96857.28;5056362;28;20210;-54
2021/04/17 00:50:20;;;;;;;8.27;7.47;;;;;;;5.55;73.29;96853.63;5056709;28;20192;-55
2021/04/17 00:52:45;;;;;;;8.93;7.50;;;;;;;5.45;74.38;96847.91;5056467;28;20171;-56
2021/04/17 00:55:12;;;;;;;8.93;8.13;;;;;;;5.54;73.72;96850.25;5056504;28;20174;-55
2021/04/17 00:57:38;;;;;;;7.53;6.73;;;;;;;5.56;73.94;96845.63;5055988;28;20189;-55
2021/04/17 01:00:08;;;;;;;7.67;6.97;;;;;;;5.38;74.22;96842.59;5056211;28;20441;-55
2021/04/17 01:02:37;;;;;;;8.60;7.70;;;;;;;5.37;74.41;96841.00;5055901;28;20204;-55
2021/04/17 01:05:06;;;;;;;8.23;7.43;;;;;;;5.17;75.09;96834.72;5056056;28;20418;-58
2021/04/17 01:07:39;;;;;;;8.20;7.40;;;;;;;5.11;76.21;96849.25;5056108;28;20484;-54
2021/04/17 01:10:07;;;;;;;7.20;6.50;;;;;;;5.17;75.25;96851.16;5056334;28;20430;-56
2021/04/17 01:12:35;;;;;;;7.47;6.77;;;;;;;5.25;74.40;96852.88;5056301;28;20402;-55
2021/04/17 01:15:04;;;;;;;7.27;6.43;;;;;;;5.28;74.85;96849.91;5056117;28;20421;-54
2021/04/17 01:17:30;;;;;;;7.90;7.10;;;;;;;5.32;74.21;96847.75;5055089;28;20432;-55
2021/04/17 01:20:16;;;;;;;7.63;6.83;;;;;;;4.92;76.33;96846.38;5056107;28;20452;-55
2021/04/17 01:22:47;;;;;;;8.90;8.00;;;;;;;4.76;76.92;96844.75;5056194;28;20988;-54
2021/04/17 01:25:16;;;;;;;8.50;7.67;;;;;;;4.65;77.91;96844.38;5056152;28;20406;-55
2021/04/17 01:27:42;;;;;;;7.70;6.90;;;;;;;4.44;78.47;96837.22;5055669;28;20402;-54
2021/04/17 01:30:16;;;;;;;8.23;7.50;;;;;;;4.31;79.79;96838.81;5055175;28;20477;-56
2021/04/17 01:32:43;;;;;;;8.03;7.23;;;;;;;4.65;79.44;96839.16;5056074;28;20198;-55
2021/04/17 01:35:12;;;;;;;9.50;8.00;;;;;;;5.02;77.33;96831.28;5038091;28;20422;-54
2021/04/17 01:37:55;;;;;;;7.83;7.07;;;;;;;5.21;76.82;96830.78;5055471;28;20406;-55
2021/04/17 01:40:23;;;;;;;8.90;8.00;;;;;;;5.29;76.02;96838.47;5055915;28;20427;-54
2021/04/17 01:42:50;;;;;;;9.83;7.50;;;;;;;5.11;76.56;96830.22;5037840;28;20892;-56
2021/04/17 01:45:20;;;;;;;8.63;7.73;;;;;;;4.92;77.15;96831.59;5054978;28;20417;-55
2021/04/17 01:47:49;;;;;;;9.10;8.20;;;;;;;4.79;77.25;96828.78;5055309;28;20408;-54
2021/04/17 01:50:15;;;;;;;8.33;7.10;;;;;;;4.61;78.34;96825.72;5055533;28;20479;-55
2021/04/17 01:52:44;;;;;;;8.23;7.43;;;;;;;4.59;78.03;96821.66;5055637;28;20396;-54
2021/04/17 01:55:10;;;;;;;8.60;7.80;;;;;;;4.60;78.56;96826.69;5055234;28;20413;-55
2021/04/17 01:57:36;;;;;;;8.70;7.90;;;;;;;4.55;78.10;96813.41;5055176;28;20416;-55
2021/04/17 02:00:04;;;;;;;8.60;7.70;;;;;;;4.37;79.34;96814.69;5055218;28;20194;-57
2021/04/17 02:02:30;;;;;;;9.63;8.57;;;;;;;4.46;80.57;96817.06;5055235;28;20492;-56
2021/04/17 02:04:55;;;;;;;10.87;9.20;;;;;;;4.88;78.70;96813.88;5055705;28;20409;-55
2021/04/17 02:07:20;;;;;;;10.10;9.10;;;;;;;5.13;77.51;96810.03;5054839;28;20207;-55
2021/04/17 02:09:46;;;;;;;10.13;9.03;;;;;;;5.24;76.61;96820.81;5054625;28;20198;-54
2021/04/17 02:12:11;;;;;;;9.87;8.87;;;;;;;5.33;76.49;96815.50;5054849;28;20259;-54
2021/04/17 02:14:37;;;;;;;10.10;9.07;;;;;;;5.29;75.15;96811.63;5055152;28;20182;-58
2021/04/17 02:17:12;;;;;;;9.43;8.47;;;;;;;5.01;75.44;96817.50;5054218;28;20265;-56
2021/04/17 02:20:01;;;;;;;12.50;10.10;;;;;;;4.65;77.68;96820.94;5055044;28;20213;-54
2021/04/17 02:22:27;;;;;;;11.20;8.27;;;;;;;4.39;78.86;96817.94;5055193;28;20816;-53
2021/04/17 02:24:53;;;;;;;10.37;9.30;;;;;;;4.05;80.86;96820.97;5055183;28;20406;-55
2021/04/17 02:27:19;;;;;;;9.43;8.40;;;;;;;4.06;81.35;96819.97;5053522;28;20491;-54
2021/04/17 02:29:52;;;;;;;9.30;8.40;;;;;;;4.18;80.53;96809.00;5054619;28;20446;-53
2021/04/17 02:32:18;;;;;;;8.13;7.33;;;;;;;4.32;80.25;96814.41;5054576;28;20417;-55
2021/04/17 02:34:43;;;;;;;10.40;9.07;;;;;;;4.40;80.25;96814.38;5054883;28;20758;-55
2021/04/17 02:37:10;;;;;;;10.10;8.60;;;;;;;4.37;79.86;96817.28;5054396;28;20171;-54
2021/04/17 02:39:35;;;;;;;10.10;9.20;;;;;;;4.35;79.82;96821.88;5054761;28;20421;-55
2021/04/17 02:42:01;;;;;;;10.10;9.10;;;;;;;4.42;80.24;96817.59;5054690;28;20448;-55
2021/04/17 02:44:26;;;;;;;10.00;9.10;;;;;;;4.65;79.40;96807.94;5054072;28;20222;-54
2021/04/17 02:46:52;;;;;;;10.83;9.80;;;;;;;4.80;78.76;96811.38;5054484;28;20194;-54
2021/04/17 02:49:17;;;;;;;12.10;10.23;;;;;;;4.86;79.41;96808.03;5053801;28;20594;-54
2021/04/17 02:51:43;;;;;;;11.37;10.03;;;;;;;5.03;78.69;96810.31;5054610;28;20177;-55
2021/04/17 02:54:09;;;;;;;12.60;10.00;;;;;;;5.19;77.98;96807.53;5054563;28;20182;-55
2021/04/17 02:56:35;;;;;;;10.53;9.53;;;;;;;5.34;76.93;96807.50;5036645;28;20198;-54
2021/04/17 02:59:00;;;;;;;13.40;11.70;;;;;;;5.45;77.14;96803.63;5053506;28;20874;-54
2021/04/17 03:01:26;;;;;;;13.40;11.80;;;;;;;5.48;76.50;96811.06;5054368;28;20190;-54
2021/04/17 03:03:51;;;;;;;12.03;10.93;;;;;;;5.54;76.38;96808.56;5054196;28;20171;-55
2021/04/17 03:06:16;;;;;;;13.30;11.07;;;;;;;5.46;76.12;96810.44;5036302;28;20635;-55
2021/04/17 03:08:42;;;;;;;12.00;10.80;;;;;;;5.40;77.38;96808.56;5053477;28;20584;-55
2021/04/17 03:11:07;;;;;;;13.23;11.83;;;;;;;5.20;78.09;96809.13;5054079;28;20181;-56
2021/04/17 03:13:32;;;;;;;14.30;12.30;;;;;;;5.10;78.55;96795.59;5053649;28;20639;-54
2021/04/17 03:15:58;;;;;;;12.50;11.27;;;;;;;4.87;79.72;96800.06;5053661;28;20190;-55
2021/04/17 03:18:24;;;;;;;12.30;11.07;;;;;;;4.88;79.74;96798.25;5053662;28;20240;-54
2021/04/17 03:20:49;;;;;;;13.30;11.90;;;;;;;4.83;80.83;96795.41;5054048;28;20182;-55
2021/04/17 03:23:15;;;;;;;14.73;12.53;;;;;;;4.84;79.70;96794.41;5053766;28;20180;-53
2021/04/17 03:25:40;;;;;;;13.07;11.77;;;;;;;4.74;80.39;96796.47;5053798;28;20175;-56
2021/04/17 03:28:06;;;;;;;12.90;11.60;;;;;;;4.67;80.56;96787.75;5053202;28;20175;-54
2021/04/17 03:30:31;;;;;;;13.93;12.43;;;;;;;4.77;80.34;96783.91;5053619;28;20623;-55
2021/04/17 03:32:59;;;;;;;14.80;12.90;;;;;;;4.64;81.59;96790.72;5053431;28;20640;-54
2021/04/17 03:35:25;;;;;;;14.50;13.00;;;;;;;4.79;79.62;96794.13;5053936;28;20194;-54
2021/04/17 03:37:51;;;;;;;13.50;12.20;;;;;;;4.87;80.52;96794.84;5052886;28;20425;-54
2021/04/17 03:40:17;;;;;;;14.07;12.50;;;;;;;4.93;79.63;96793.31;5053708;28;20448;-54
2021/04/17 03:42:43;;;;;;;14.00;12.70;;;;;;;5.00;79.45;96795.03;5053506;28;20548;-55
2021/04/17 03:45:09;;;;;;;14.00;11.87;;;;;;;4.98;78.64;96796.22;5053572;28;20444;-54
2021/04/17 03:47:35;;;;;;;16.23;13.30;;;;;;;4.84;80.03;96791.78;5052792;28;20190;-54
2021/04/17 03:50:02;;;;;;;16.00;14.30;;;;;;;4.93;79.83;96793.31;5053207;28;20429;-54
2021/04/17 03:52:27;;;;;;;14.97;13.30;;;;;;;5.12;79.17;96798.00;5053453;28;20425;-55
2021/04/17 03:54:53;;;;;;;13.93;12.43;;;;;;;5.23;78.49;96800.16;5053248;28;20425;-54
2021/04/17 03:57:18;;;;;;;15.00;13.40;;;;;;;4.84;80.61;96795.22;5053012;28;20706;-53
2021/04/17 03:59:45;;;;;;;15.47;13.53;;;;;;;4.67;81.06;96800.78;5052620;28;20190;-53
2021/04/17 04:02:11;;;;;;;15.77;13.97;;;;;;;4.76;82.04;96791.91;5053110;28;20199;-55
2021/04/17 04:04:37;;;;;;;16.47;14.50;;;;;;;4.79;82.06;96794.94;5053182;28;20417;-56
2021/04/17 04:07:03;;;;;;;15.80;14.30;;;;;;;4.92;80.56;96796.94;5053052;28;20406;-56
2021/04/17 04:09:29;;;;;;;16.50;13.83;;;;;;;4.98;80.59;96804.81;5052857;28;20449;-53
2021/04/17 04:11:54;;;;;;;14.63;13.23;;;;;;;4.94;80.34;96813.19;5053217;28;20196;-53
2021/04/17 04:14:19;;;;;;;13.53;12.20;;;;;;;4.90;80.53;96807.53;5053382;28;20174;-54
2021/04/17 04:16:45;;;;;;;14.63;13.10;;;;;;;4.76;81.30;96813.53;5053224;28;20173;-55
2021/04/17 04:19:10;;;;;;;15.43;13.77;;;;;;;4.74;82.14;96812.09;5052264;28;20678;-54
2021/04/17 04:21:36;;;;;;;15.40;13.63;;;;;;;4.63;82.83;96809.91;5053480;28;20194;-55
2021/04/17 04:24:01;;;;;;;15.73;14.10;;;;;;;4.74;82.88;96807.69;5052519;28;20715;-55
2021/04/17 04:26:26;;;;;;;17.90;13.93;;;;;;;4.74;82.28;96805.09;5053145;28;20185;-55
2021/04/17 04:28:52;;;;;;;15.73;14.00;;;;;;;5.10;80.28;96803.41;5052497;28;20210;-54
2021/04/17 04:31:17;;;;;;;15.67;13.60;;;;;;;5.18;80.44;96807.72;5053248;28;20654;-53
2021/04/17 04:33:42;;;;;;;14.97;13.50;;;;;;;5.13;78.45;96817.84;5052756;28;20300;-54
2021/04/17 04:36:08;;;;;;;14.70;13.27;;;;;;;5.20;78.69;96808.31;5053122;28;20174;-54
2021/04/17 04:38:34;;;;;;;14.63;13.13;;;;;;;5.19;78.55;96810.13;5052528;28;20247;-54
2021/04/17 04:40:59;;;;;;;14.93;13.43;;;;;;;5.01;79.80;96806.25;5052890;28;20318;-54
2021/04/17 04:43:25;;;;;;;14.23;12.80;;;;;;;4.96;79.79;96811.22;5052701;28;20480;-53
2021/04/17 04:45:51;;;;;;;15.30;13.70;;;;;;;4.96;79.67;96814.59;5052704;28;20175;-55
2021/04/17 04:48:16;;;;;;;15.33;13.73;;;;;;;4.94;80.42;96818.38;5052064;28;20240;-55
2021/04/17 04:50:42;;;;;;;17.80;14.37;;;;;;;5.03;79.72;96818.13;5053091;28;20414;-54
2021/04/17 04:53:07;;;;;;;16.07;13.50;;;;;;;5.09;79.68;96811.38;5053022;28;20558;-55
2021/04/17 04:55:33;;;;;;;14.13;12.63;;;;;;;5.15;78.90;96818.47;5052974;28;20171;-54
2021/04/17 04:57:59;;;;;;;15.43;13.80;;;;;;;5.17;79.91;96821.69;5052526;28;20170;-55
2021/04/17 05:00:25;;;;;;;15.53;13.97;;;;;;;5.20;78.98;96819.53;5052569;28;20206;-54
2021/04/17 05:02:50;;;;;;;15.63;14.00;;;;;;;5.19;78.97;96817.13;5052462;28;20203;-55
2021/04/17 05:05:17;;;;;;;15.43;13.53;;;;;;;5.24;79.00;96823.41;5052843;28;20405;-53
2021/04/17 05:07:43;;;;;;;16.47;14.77;;;;;;;5.32;78.52;96817.28;5051950;28;20206;-53
2021/04/17 05:10:10;;;;;;;15.63;13.57;;;;;;;5.24;79.95;96817.38;5052563;28;20964;-55
2021/04/17 05:12:35;;;;;;;15.07;13.00;;;;;;;5.09;80.04;96822.59;5055159;28;20232;-53
2021/04/17 05:15:00;;;;;;;14.80;13.20;;;;;;;5.23;79.49;96815.78;5055720;28;20909;-55
2021/04/17 05:17:26;;;;;;;14.17;12.77;;;;;;;5.31;78.86;96817.47;5056141;28;20177;-55
2021/04/17 05:19:53;;;;;;;15.30;13.70;;;;;;;5.34;78.93;96811.91;5056103;28;20201;-56
2021/04/17 05:22:18;;;;;;;17.00;13.30;;;;;;;5.56;78.93;96822.19;5056260;28;20321;-55
2021/04/17 05:24:44;;;;;;;14.97;13.40;;;;;;;5.53;77.61;96814.72;5056125;28;20894;-54
2021/04/17 05:27:09;;;;;;;14.00;12.53;;;;;;;5.23;80.01;96813.16;5055783;28;20167;-55
2021/04/17 05:29:35;;;;;;;15.10;12.60;;;;;;;5.16;79.54;96825.31;5055436;28;20199;-53
2021/04/17 05:32:00;;;;;;;13.83;11.73;;;;;;;5.02;80.71;96826.09;5056089;28;20635;-53
2021/04/17 05:34:25;;;;;;;14.27;12.57;;;;;;;5.02;81.02;96824.31;5056265;28;20628;-53
2021/04/17 05:36:51;;;;;;;17.50;14.30;;;;;;;5.16;80.80;96823.47;5055846;28;20183;-55
2021/04/17 05:39:16;;;;;;;14.60;13.03;;;;;;;5.32;79.76;96822.50;5055756;28;20286;-55
2021/04/17 05:41:41;;;;;;;14.70;13.20;;;;;;;5.49;79.94;96825.72;5055819;28;20332;-55
2021/04/17 05:44:13;;;;;;;14.80;13.17;;;;;;;5.52;79.66;96828.78;5055509;28;20182;-55
2021/04/17 05:46:42;;;;;;;15.03;13.33;;;;;;;5.38;79.95;96829.56;5056019;28;20615;-53
2021/04/17 05:49:09;;;;;;;15.70;13.63;;;;;;;5.25;80.67;96832.03;5055361;28;20429;-53
2021/04/17 05:51:37;;;;;;;19.40;14.20;;;;;;;5.21;81.57;96831.59;5055826;28;20406;-54
2021/04/17 05:54:03;;;;;;;17.87;15.17;;;;;;;5.41;80.89;96831.84;5055565;28;20401;-55
2021/04/17 05:56:29;;;;;;;15.27;13.67;;;;;;;5.19;81.44;96835.34;5055573;28;20406;-53
2021/04/17 05:58:54;;;;;;;18.30;14.93;;;;;;;4.84;83.54;96826.44;5054497;28;20441;-55
2021/04/17 06:01:20;;;;;;;17.07;14.50;;;;;;;5.29;82.08;96830.66;5055271;28;20199;-55
2021/04/17 06:03:46;;;;;;;17.80;15.10;;;;;;;5.43;82.33;96827.25;5055610;28;20179;-54
2021/04/17 06:06:11;;;;;;;16.50;14.43;;;;;;;5.29;82.03;96838.47;5054869;28;20613;-56
2021/04/17 06:08:37;;;;;;;19.40;15.13;;;;;;;5.33;81.60;96834.53;5054500;28;20202;-54
2021/04/17 06:11:05;;;;;;;15.30;13.57;;;;;;;5.56;80.92;96839.63;5055124;28;20663;-55
2021/04/17 06:13:31;;;;;;;18.03;14.43;;;;;;;5.75;80.33;96834.63;5055044;28;20478;-56
2021/04/17 06:15:56;;;;;;;17.63;15.27;;;;;;;6.04;79.91;96839.00;5035943;28;20426;-53
2021/04/17 06:18:21;;;;;;;18.40;14.20;;;;;;;6.01;79.24;96841.97;5054299;28;20266;-55
2021/04/17 06:20:47;;;;;;;17.93;15.13;;;;;;;5.99;79.03;96825.69;5055302;28;20183;-55
2021/04/17 06:23:12;;;;;;;17.90;14.37;;;;;;;5.98;79.43;96843.13;5054105;28;20199;-55
2021/04/17 06:25:37;;;;;;;17.40;15.50;;;;;;;6.00;78.77;96842.94;5055050;28;20263;-55
2021/04/17 06:28:03;;;;;;;18.03;15.40;;;;;;;6.09;79.06;96847.06;5054371;28;20186;-54
2021/04/17 06:30:29;;;;;;;16.60;14.70;;;;;;;6.44;78.26;96840.16;5055220;28;20259;-54
2021/04/17 06:32:54;;;;;;;17.03;14.00;;;;;;;6.37;77.45;96837.50;5054879;28;20172;-54
2021/04/17 06:35:19;;;;;;;17.70;14.67;;;;;;;6.62;76.65;96840.50;5054425;28;20600;-55
2021/04/17 06:37:45;;;;;;;16.60;14.43;;;;;;;6.82;75.92;96838.88;5053518;28;20189;-54
2021/04/17 06:40:11;;;;;;;16.67;14.80;;;;;;;7.00;74.79;96840.00;5054980;28;20576;-54
2021/04/17 06:42:40;;;;;;;16.03;14.33;;;;;;;6.93;75.46;96838.34;5054366;28;20208;-55
2021/04/17 06:45:06;;;;;;;17.30;14.93;;;;;;;6.95;74.62;96837.16;5036780;28;20422;-55
2021/04/17 06:47:33;;;;;;;16.77;14.97;;;;;;;7.17;74.18;96836.06;5054233;28;20411;-56
2021/04/17 06:49:59;;;;;;;16.07;14.30;;;;;;;7.36;72.62;96833.75;5054092;28;21038;-55
2021/04/17 06:52:27;;;;;;;19.60;15.90;;;;;;;7.32;72.25;96830.72;5054121;28;20429;-55
2021/04/17 06:54:53;;;;;;;17.97;16.10;;;;;;;7.37;72.18;96828.34;5054527;28;20415;-54
2021/04/17 06:57:19;;;;;;;19.23;15.80;;;;;;;7.50;71.41;96825.00;5053911;28;20499;-54
2021/04/17 06:59:44;;;;;;;18.40;15.30;;;;;;;7.37;72.40;96822.31;5054397;28;20515;-55
2021/04/17 07:02:16;;;;;;;17.80;15.90;;;;;;;7.52;72.28;96826.41;5054155;28;20270;-56
2021/04/17 07:04:43;;;;;;;17.20;14.80;;;;;;;7.63;72.13;96823.22;5053980;28;20186;-55
2021/04/17 07:07:09;;;;;;;17.10;15.30;;;;;;;7.57;70.56;96826.66;5053561;28;20430;-55
2021/04/17 07:09:34;;;;;;;16.73;14.83;;;;;;;7.82;71.22;96829.53;5053880;28;20521;-54
2021/04/17 07:12:00;;;;;;;17.90;15.83;;;;;;;7.97;71.39;96827.56;5052662;28;20851;-54
2021/04/17 07:14:25;;;;;;;17.53;15.63;;;;;;;8.12;70.74;96822.97;5053888;28;20186;-54
2021/04/17 07:17:04;;;;;;;18.30;15.77;;;;;;;8.31;70.08;96828.25;5051958;28;20581;-59
2021/04/17 07:19:50;;;;;;;16.63;14.80;;;;;;;8.31;69.27;96819.63;5030488;28;20211;-60
2021/04/17 07:22:16;;;;;;;20.10;15.03;;;;;;;8.51;69.03;96822.25;5032071;28;20533;-56
2021/04/17 07:24:42;;;;;;;19.80;14.27;;;;;;;8.34;67.45;96819.19;5050077;28;20516;-59
2021/04/17 07:27:07;;;;;;;15.80;14.20;;;;;;;8.30;68.48;96821.41;5049911;28;20211;-55
2021/04/17 07:29:44;;;;;;;15.77;14.07;;;;;;;8.65;67.91;96822.03;5049655;28;20836;-55
2021/04/17 07:32:18;;;;;;;19.17;14.83;;;;;;;8.35;67.90;96820.84;5050057;28;20183;-56
2021/04/17 07:35:07;;;;;;;16.67;14.80;;;;;;;8.55;67.84;96819.00;5049852;28;20432;-61
2021/04/17 07:37:34;;;;;;;15.87;13.83;;;;;;;8.55;66.65;96818.22;5036630;28;20462;-59
2021/04/17 07:40:19;;;;;;;16.70;14.37;;;;;;;8.71;65.84;96820.44;5049900;28;20442;-56
2021/04/17 07:42:51;;;;;;;16.27;14.23;;;;;;;8.80;66.52;96817.41;5049108;28;20461;-55
2021/04/17 07:45:28;;;;;;;15.17;13.57;;;;;;;8.92;65.26;96813.16;5049605;28;21088;-56
2021/04/17 07:47:59;;;;;;;15.67;14.07;;;;;;;9.02;65.27;96810.91;5049149;28;20428;-59
2021/04/17 07:50:31;;;;;;;16.80;13.43;;;;;;;9.25;65.64;96813.91;5049385;28;20477;-59
2021/04/17 07:52:56;;;;;;;15.87;13.10;;;;;;;9.30;63.78;96813.25;5029501;28;20425;-58
2021/04/17 07:55:22;;;;;;;17.07;13.57;;;;;;;9.28;63.61;96816.09;5030004;28;20470;-55
2021/04/17 07:57:55;;;;;;;14.57;13.07;;;;;;;9.59;63.42;96818.00;5048508;28;20181;-58
2021/04/17 08:00:23;;;;;;;13.97;12.50;;;;;;;9.51;61.60;96809.59;5049485;28;20446;-56
2021/04/17 08:02:53;;;;;;;15.07;13.40;;;;;;;9.80;60.62;96809.84;5049463;28;20452;-57
2021/04/17 08:05:20;;;;;;;14.07;12.67;;;;;;;9.35;61.64;96805.59;5048458;28;20458;-55
2021/04/17 08:07:48;;;;;;;12.40;10.77;;;;;;;9.54;60.96;96809.97;5048953;28;20795;-58
2021/04/17 08:10:15;;;;;;;10.93;9.73;;;;;;;9.85;58.61;96810.03;5049676;28;20487;-59
2021/04/17 08:12:42;;;;;;;13.23;10.80;;;;;;;9.89;59.62;96797.28;5049399;28;20890;-57
2021/04/17 08:15:11;;;;;;;12.83;11.53;;;;;;;10.04;57.96;96798.63;5049001;28;20440;-56
2021/04/17 08:17:40;;;;;;;12.90;11.60;;;;;;;10.10;57.66;96803.06;5048192;28;20542;-55
2021/04/17 08:20:12;;;;;;;12.30;11.00;;;;;;;10.38;57.15;96795.56;5044088;28;20535;-56
2021/04/17 08:22:39;;;;;;;12.70;10.80;;;;;;;10.22;57.76;96793.47;5049366;28;20476;-59
2021/04/17 08:25:07;;;;;;;13.80;11.50;;;;;;;10.13;58.58;96797.38;5049639;28;20412;-55
2021/04/17 08:27:33;;;;;;;12.03;10.70;;;;;;;10.26;56.76;96796.47;5048786;28;20796;-58
2021/04/17 08:29:59;;;;;;;13.37;12.07;;;;;;;10.00;60.91;96800.03;5049184;28;20429;-58
2021/04/17 08:32:44;;;;;;;11.30;10.10;;;;;;;9.96;57.35;96798.06;5052114;28;20445;-57
2021/04/17 08:35:24;;;;;;;11.27;10.00;;;;;;;10.01;57.68;96796.41;5052748;28;20815;-58
2021/04/17 08:37:50;;;;;;;10.37;9.27;;;;;;;10.17;57.80;96784.63;5034981;28;20424;-55
2021/04/17 08:40:36;;;;;;;10.63;9.57;;;;;;;10.26;57.43;96789.41;5052582;28;20502;-58
2021/04/17 08:43:02;;;;;;;10.47;9.27;;;;;;;10.44;56.23;96786.03;5052323;28;20674;-57
2021/04/17 08:45:28;;;;;;;10.83;9.73;;;;;;;10.61;56.52;96788.94;5052358;28;20447;-55
2021/04/17 08:47:59;;;;;;;10.47;9.40;;;;;;;10.30;57.53;96782.72;5055070;28;20421;-58
2021/04/17 08:50:31;;;;;;;8.33;7.53;;;;;;;10.20;57.46;96776.31;5056603;28;20682;-58
2021/04/17 08:53:04;;;;;;;9.77;8.67;;;;;;;10.54;55.69;96782.94;5056542;28;20417;-55
2021/04/17 08:55:50;;;;;;;11.63;8.23;;;;;;;10.62;54.78;96787.91;5056433;28;20912;-56
2021/04/17 08:58:21;;;;;;;10.43;9.43;;;;;;;10.65;55.45;96792.75;5026506;28;20499;-55
2021/04/17 09:00:52;;;;;;;10.40;8.20;;;;;;;10.72;54.61;96791.69;5037951;28;20831;-55
2021/04/17 09:03:36;;;;;;;8.13;7.33;;;;;;;10.32;55.71;96787.75;5056575;28;20456;-55
2021/04/17 09:06:03;;;;;;;8.53;7.73;;;;;;;10.57;54.73;96793.81;5056697;28;20397;-55
2021/04/17 09:08:29;;;;;;;8.07;7.27;;;;;;;10.99;52.70;96793.06;5055996;28;20490;-55
2021/04/17 09:10:54;;;;;;;7.10;6.43;;;;;;;11.28;51.06;96781.00;5056228;28;20425;-55
2021/04/17 09:13:26;;;;;;;6.77;6.07;;;;;;;11.41;49.71;96784.28;5056337;28;20163;-55
2021/04/17 09:15:56;;;;;;;12.70;7.33;;;;;;;11.09;49.82;96785.44;5056029;28;20713;-57
2021/04/17 09:18:37;;;;;;;7.43;6.50;;;;;;;11.58;48.85;96775.81;5055436;28;20939;-59
2021/04/17 09:21:09;;;;;;;7.37;6.70;;;;;;;11.85;49.55;96788.44;5056223;28;20471;-55
2021/04/17 09:23:40;;;;;;;7.37;6.63;;;;;;;11.73;48.49;96774.44;5056334;28;20404;-55
2021/04/17 09:26:07;;;;;;;8.93;6.63;;;;;;;11.95;48.90;96775.56;5037656;28;20452;-56
2021/04/17 09:28:39;;;;;;;7.30;6.60;;;;;;;12.48;48.00;96774.78;5037651;28;20521;-55
2021/04/17 09:31:10;;;;;;;7.00;6.30;;;;;;;12.54;48.87;96771.22;5038323;28;20417;-59
2021/04/17 09:33:35;;;;;;;7.87;6.87;;;;;;;12.52;49.48;96768.78;5056009;28;20441;-56
2021/04/17 09:36:00;;;;;;;7.43;6.73;;;;;;;12.46;47.20;96761.81;5056016;28;20445;-56
2021/04/17 09:38:30;;;;;;;7.17;6.47;;;;;;;12.47;47.71;96765.25;5055045;28;20187;-56
2021/04/17 09:40:56;;;;;;;8.03;6.90;;;;;;;12.86;46.45;96762.78;5055791;28;20174;-59
2021/04/17 09:43:24;;;;;;;7.63;6.93;;;;;;;12.81;47.93;96760.00;5055713;28;20442;-59
2021/04/17 09:45:51;;;;;;;8.50;7.70;;;;;;;12.70;47.84;96760.00;5055451;28;20221;-57
2021/04/17 09:48:19;;;;;;;8.57;6.93;;;;;;;13.19;45.00;96762.16;5055192;28;20406;-60
2021/04/17 09:50:45;;;;;;;9.17;7.60;;;;;;;13.29;46.43;96755.28;5055891;28;20406;-60
2021/04/17 09:53:13;;;;;;;9.57;7.17;;;;;;;13.32;46.34;96762.75;5037065;28;20429;-57
2021/04/17 09:55:57;;;;;;;7.53;6.73;;;;;;;13.48;44.64;96752.50;5055368;28;20536;-56
2021/04/17 09:58:30;;;;;;;9.10;6.90;;;;;;;13.50;43.43;96753.84;5055628;28;20453;-58
2021/04/17 10:01:03;;;;;;;8.50;7.67;;;;;;;13.50;43.75;96750.44;5055426;28;20418;-56
2021/04/17 10:03:32;;;;;;;8.17;7.50;;;;;;;12.15;44.30;96755.00;5055590;28;20901;-59
2021/04/17 10:05:58;;;;;;;8.47;7.77;;;;;;;12.57;45.42;96749.69;5055300;28;20410;-58
2021/04/17 10:08:33;;;;;;;8.77;7.87;;;;;;;12.76;46.28;96741.44;5055543;28;20870;-58
2021/04/17 10:10:58;;;;;;;8.77;8.00;;;;;;;12.75;47.17;96745.13;5055236;28;20436;-56
2021/04/17 10:13:45;;;;;;;7.60;6.70;;;;;;;12.14;48.47;96740.22;5055127;28;20410;-58
2021/04/17 10:16:12;;;;;;;9.40;7.30;;;;;;;12.59;46.41;96737.84;5037148;28;20175;-58
2021/04/17 10:18:39;;;;;;;7.27;6.60;;;;;;;12.41;46.24;96733.50;5054382;28;20544;-58
2021/04/17 10:21:07;;;;;;;7.67;6.87;;;;;;;12.38;45.62;96730.50;5054752;28;20426;-58
2021/04/17 10:23:32;;;;;;;8.33;6.67;;;;;;;12.27;46.24;96736.56;5055115;28;20413;-58
2021/04/17 10:26:06;;;;;;;6.90;6.23;;;;;;;12.59;44.90;96737.84;5054779;28;20434;-59
2021/04/17 10:28:32;;;;;;;9.13;7.33;;;;;;;12.10;45.81;96736.41;5054403;28;20429;-59
2021/04/17 10:31:18;;;;;;;7.60;6.80;;;;;;;11.81;46.88;96737.25;5054855;28;20411;-55
2021/04/17 10:33:46;;;;;;;8.57;7.20;;;;;;;11.67;48.13;96743.72;5053941;28;20414;-56
2021/04/17 10:36:20;;;;;;;7.60;6.90;;;;;;;11.53;48.01;96734.38;5053425;28;20914;-58
2021/04/17 10:38:46;;;;;;;8.70;6.30;;;;;;;12.05;46.66;96725.75;5053858;28;20539;-58
2021/04/17 10:41:18;;;;;;;7.93;7.13;;;;;;;12.35;45.89;96723.06;5053536;28;20430;-58
2021/04/17 10:43:43;;;;;;;6.90;6.30;;;;;;;12.51;44.69;96722.41;5054417;28;20504;-57
2021/04/17 10:46:09;;;;;;;7.80;7.10;;;;;;;12.58;44.56;96722.28;5039300;28;20989;-57
2021/04/17 10:48:43;;;;;;;7.33;6.03;;;;;;;12.89;44.72;96725.38;5035938;28;20203;-57
2021/04/17 10:51:12;;;;;;;7.23;6.53;;;;;;;13.00;43.71;96723.75;5054675;28;20164;-58
2021/04/17 10:53:42;;;;;;;7.03;6.40;;;;;;;12.22;45.84;96718.81;5054657;28;20414;-57
2021/04/17 10:56:16;;;;;;;6.57;6.00;;;;;;;12.05;46.54;96723.13;5054622;28;20959;-57
2021/04/17 10:58:44;;;;;;;7.60;6.90;;;;;;;11.87;47.33;96714.47;5054010;28;20448;-57
2021/04/17 11:01:10;;;;;;;7.50;6.80;;;;;;;11.75;47.30;96716.28;5053865;28;20418;-56
2021/04/17 11:03:47;;;;;;;7.43;6.83;;;;;;;12.09;45.91;96708.47;5054056;28;20444;-58
2021/04/17 11:06:13;;;;;;;7.73;6.93;;;;;;;12.07;46.56;96707.09;5054082;28;20651;-58
2021/04/17 11:08:39;;;;;;;8.53;6.03;;;;;;;12.25;45.59;96707.81;5033676;28;20438;-58
2021/04/17 11:11:09;;;;;;;6.77;6.10;;;;;;;12.43;44.26;96706.13;5016284;28;20972;-58
2021/04/17 11:13:38;;;;;;;6.90;6.20;;;;;;;12.50;45.38;96697.06;5034246;28;20168;-58
2021/04/17 11:16:04;;;;;;;7.73;6.93;;;;;;;12.79;44.52;96700.63;5053579;28;20504;-58
2021/04/17 11:18:34;;;;;;;7.53;6.83;;;;;;;12.72;45.43;96692.81;5053402;28;21087;-57
2021/04/17 11:21:02;;;;;;;7.03;6.40;;;;;;;12.75;44.47;96689.75;5053957;28;20405;-59
2021/04/17 11:23:41;;;;;;;6.57;5.97;;;;;;;12.63;43.22;96686.28;5033877;28;20447;-58
2021/04/17 11:26:17;;;;;;;7.00;6.40;;;;;;;12.49;43.20;96681.47;5034037;28;20402;-57
2021/04/17 11:28:49;;;;;;;6.03;5.43;;;;;;;11.83;44.16;96684.38;5048171;28;20520;-57
2021/04/17 11:31:17;;;;;;;5.57;5.03;;;;;;;12.50;44.70;96667.28;5034635;28;20862;-58
2021/04/17 11:33:44;;;;;;;5.40;5.00;;;;;;;13.04;45.06;96677.44;5050057;28;20543;-60